Colo, IA (50056)

1:16 AM CDT on September 01, 2015 (GMT -0500)
MesoWest | | Change Station
CLOSE
Current Station
Personal Weather Station
Location: Colo, IA
Elevation: 1045 ft
Nearby Weather Stations
Active Advisory: Flood Warning

Elev 1045 ft 42.02 °N, 93.31 °W | Updated 56 minutes ago

Fog
Fog
71.0 °F
Feels Like 71.0 °F
N
0.0
Wind Variable Wind from North
Gusts 0.0 mph

Today
High -- | Low -- °F
--% Chance of Precip.
Yesterday
High -- | Low -- °F
Precip. -- in
6:38 AM 7:47 PM
Waning Gibbous, 91% visible
Pressure 29.96 in
Visibility 0.2 miles
Clouds Scattered Clouds 500 ft
Overcast 5000 ft
Dew Point Not available.
Humidity Not available.
Rainfall in
Snow Depth Not available.
UV 0 out of 12
Pollen 11.40 out of 12
Air Quality Not available.
Flu Activity Not available.
SPECI KAMW 010600Z AUTO 00000KT 1/4SM FG SCT005 OVC050 19/18 A2996 RMK AO2 T01940183
Pressure 29.96 in
Visibility 0.2 miles
Clouds Scattered Clouds 500 ft
Overcast 5000 ft
Dew Point Not available.
Humidity Not available.
Rainfall in
Snow Depth Not available.
UV 0 out of 12
Pollen 11.40 out of 12
Air Quality Not available.
Flu Activity Not available.
SPECI KAMW 010600Z AUTO 00000KT 1/4SM FG SCT005 OVC050 19/18 A2996 RMK AO2 T01940183

10-Day Weather Forecast

×

Almanac

Astronomy

Sep. 01, 2015 Rise Set
Actual Time
Civil Twilight
Nautical Twilight
Astronomical Twilight
Moon
Length of Visible Light
Length of Day
Tomorrow will be .
, % of the Moon is Illuminated

Today's Extremes

State Highs State Lows

Community

WunderPhotos

Upload Photos

1,851,487 photos uploaded!

WunderBlogs® & News

Nearby

Air Quality

  Air Quality AQ Index Pollutant
Not available.

Snow Depth

Station Depth Elevation

Earthquake Activity

City Distance Mag. Time & Date
Minimum magnitude displayed is 2.5.

Coastal Water Temperatures

Place Temperature

Stations

Nearby Weather Stations

Station Location Temp. Windchill Dew Point Humidity Wind Precip. Elev Updated Type
                   
Flood Warning
Statement as of 7:39 PM CDT on August 30, 2015

... Flood Warning now in effect until Monday morning...

The Flood Warning continues for
the south Skunk River near Ames US 30... or from squaw creek... to
the Polk-Jasper County line.
* Until Monday morning.
* At 6:00 PM Sunday the stage was 23.2 feet... or 1.7 feet above
flood stage.
* Flood stage is 21.5 feet.
* Minor flooding is occurring and is forecast to continue.
* Forecast... continue falling and go below flood stage Monday morning.
* Impact... at 23.0 feet... the Shady Grove trailer park... located at
1006 South Dayton Avenue... floods. The Railroad just northeast of
Cambridge floods as well.


Lat... Lon 4201 9362 4201 9357 4174 9335 4168 9335
      4180 9352 4201 9362